This is the latest recevied weather packets stored in our database for station/object F5TND-3. If no packets are shown the sender has not sent any weather packets the latest 10 day(s).
| Time | Temp. | Humidity | Pressure | Rain* | Wind** | Luminosity | Snow |
|---|---|---|---|---|---|---|---|
| 1787783396 | 17.78° C | 100% | 1005.3 hPa | - | - | - | - |
| 1787780987 | 17.22° C | 100% | 1005.9 hPa | - | - | - | - |
| 1787779787 | 17.22° C | 100% | 1003.6 hPa | - | - | - | - |
| 1787778587 | 17.22° C | 100% | 1003.5 hPa | - | - | - | - |
| 1787777391 | 16.67° C | 100% | 1004.4 hPa | - | - | - | - |
| 1787776189 | 17.22° C | 100% | 1004.9 hPa | - | - | - | - |
| 1787774981 | 17.78° C | 100% | 1004.6 hPa | - | - | - | - |
| 1787773781 | 18.89° C | 100% | 1003.7 hPa | - | - | - | - |
| 1787772584 | 19.44° C | 100% | 1002.9 hPa | - | - | - | - |
| 1787771380 | 19.44° C | 100% | 1002.9 hPa | - | - | - | - |
| 1787770180 | 19.44° C | 100% | 1002.8 hPa | - | - | - | - |
| 1787767780 | 20° C | 100% | 1004.1 hPa | - | - | - | - |
| 1787766590 | 20° C | 100% | 1003.5 hPa | - | - | - | - |
| 1787765380 | 23.89° C | 76% | 1004.3 hPa | - | - | - | - |
| 1787764180 | 26.11° C | 61% | 1001.8 hPa | - | - | - | - |
| 1787762980 | 28.89° C | 46% | 1002.3 hPa | - | - | - | - |
| 1787761782 | 30.56° C | 39% | 1001.9 hPa | - | - | - | - |
| 1787759380 | 32.22° C | 36% | 1003.3 hPa | - | - | - | - |
| 1787758181 | 33.33° C | 36% | 1003.5 hPa | - | - | - | - |
| 1787755779 | 31.67° C | 39% | 1004.1 hPa | - | - | - | - |
| 1787752188 | 30.56° C | 41% | 1005.1 hPa | - | - | - | - |
| 1787750979 | 30° C | 44% | 1005.3 hPa | - | - | - | - |
| 1787749779 | 30° C | 45% | 1005.8 hPa | - | - | - | - |
| 1787748579 | 29.44° C | 45% | 1006.2 hPa | - | - | - | - |
| 1787747382 | 28.89° C | 45% | 1006.6 hPa | - | - | - | - |
* Rain since midnight (hover to see other rain measurements)
** Current wind speed in m/s (hover to see current wind gust speed)